createdAt,value
2023-04-02T00:00:27.967Z,1.60
2023-04-02T00:04:38.217Z,1.37
2023-04-02T00:08:43.980Z,1.33
2023-04-02T00:13:01.392Z,1.47
2023-04-02T00:17:07.300Z,1.60
2023-04-02T00:21:14.799Z,1.60
2023-04-02T00:25:17.895Z,1.33
2023-04-02T00:29:21.731Z,1.92
2023-04-02T00:33:31.786Z,1.40
2023-04-02T00:37:42.346Z,1.50
2023-04-02T00:41:55.073Z,1.45
2023-04-02T00:46:03.074Z,1.45
2023-04-02T00:50:25.421Z,1.50
2023-04-02T00:54:33.727Z,1.73
2023-04-02T00:58:41.092Z,1.50
2023-04-02T01:02:46.157Z,1.70
2023-04-02T01:06:53.903Z,1.20
2023-04-02T01:11:08.572Z,1.40
2023-04-02T01:15:18.158Z,1.45
2023-04-02T01:19:50.499Z,1.60
2023-04-02T01:24:04.184Z,1.55
2023-04-02T01:28:14.890Z,1.40
2023-04-02T01:32:22.290Z,1.50
2023-04-02T01:36:38.947Z,1.40
2023-04-02T01:40:48.846Z,1.30
2023-04-02T01:45:00.845Z,1.20
2023-04-02T01:49:13.944Z,1.50
2023-04-02T01:53:20.179Z,1.60
2023-04-02T01:57:23.345Z,1.80
2023-04-02T02:01:31.205Z,1.90
2023-04-02T02:05:35.992Z,1.70
2023-04-02T02:09:39.583Z,1.50
2023-04-02T02:13:47.979Z,1.60
2023-04-02T02:17:53.243Z,1.60
2023-04-02T02:22:01.011Z,1.70
2023-04-02T02:26:08.162Z,1.63
2023-04-02T02:30:16.816Z,1.70
2023-04-02T02:34:24.139Z,1.92
2023-04-02T02:38:40.276Z,1.60
2023-04-02T02:42:49.257Z,1.80
2023-04-02T02:46:54.707Z,1.65
2023-04-02T02:51:00.015Z,1.70
2023-04-02T02:55:07.772Z,1.65
2023-04-02T02:59:12.487Z,1.83
2023-04-02T03:03:19.775Z,1.60
2023-04-02T03:07:26.582Z,1.50
2023-04-02T03:11:38.136Z,1.70
2023-04-02T03:15:53.149Z,1.60
2023-04-02T03:20:01.076Z,1.90
2023-04-02T03:24:11.211Z,1.70
2023-04-02T03:28:23.962Z,2.00
2023-04-02T03:32:33.181Z,2.10
2023-04-02T03:36:44.691Z,2.23
2023-04-02T03:41:00.097Z,2.30
2023-04-02T03:45:16.201Z,2.33
2023-04-02T03:49:27.258Z,2.10
2023-04-02T03:53:32.303Z,2.28
2023-04-02T03:57:44.105Z,2.70
2023-04-02T04:01:58.733Z,2.95
2023-04-02T04:06:07.122Z,3.05
2023-04-02T04:10:18.002Z,3.10
2023-04-02T04:14:33.623Z,2.70
2023-04-02T04:18:44.987Z,3.30
2023-04-02T04:22:51.590Z,3.00
2023-04-02T04:26:58.462Z,2.90
2023-04-02T04:31:04.509Z,2.83
2023-04-02T04:35:19.107Z,2.60
2023-04-02T04:39:31.879Z,2.63
2023-04-02T04:43:44.189Z,2.50
2023-04-02T04:47:53.506Z,2.60
2023-04-02T04:52:08.642Z,2.80
2023-04-02T04:56:24.164Z,2.50
2023-04-02T05:00:34.790Z,2.80
2023-04-02T05:04:40.201Z,2.45
2023-04-02T05:08:56.653Z,2.50
2023-04-02T05:13:08.965Z,2.10
2023-04-02T05:17:21.919Z,1.98
2023-04-02T05:21:35.160Z,2.00
2023-04-02T05:25:53.174Z,2.17
2023-04-02T05:30:01.922Z,1.92
2023-04-02T05:34:05.803Z,2.05
2023-04-02T05:38:09.755Z,2.22
2023-04-02T05:42:20.350Z,1.95
2023-04-02T05:46:29.490Z,1.67
2023-04-02T05:50:37.748Z,1.93
2023-04-02T05:54:49.721Z,2.10
2023-04-02T05:58:59.457Z,2.10
2023-04-02T06:03:09.430Z,2.00
2023-04-02T06:07:18.523Z,2.17
2023-04-02T06:11:25.324Z,1.95
2023-04-02T06:15:37.118Z,1.90
2023-04-02T06:19:41.166Z,1.92
2023-04-02T06:23:55.195Z,2.03
2023-04-02T06:28:14.693Z,2.10
2023-04-02T06:32:24.418Z,2.47
2023-04-02T06:36:29.116Z,2.60
2023-04-02T06:40:43.685Z,2.20
2023-04-02T06:44:48.912Z,2.30
2023-04-02T06:48:58.487Z,2.38
2023-04-02T06:53:07.514Z,2.13
2023-04-02T06:57:15.842Z,2.20
2023-04-02T07:01:24.060Z,2.10
2023-04-02T07:05:28.630Z,2.20
2023-04-02T07:09:35.083Z,1.90
2023-04-02T07:13:38.280Z,1.85
2023-04-02T07:17:41.588Z,1.83
2023-04-02T07:21:47.469Z,1.63
2023-04-02T07:25:52.730Z,1.50
2023-04-02T07:29:57.448Z,1.88
2023-04-02T07:34:02.041Z,1.55
2023-04-02T07:38:08.531Z,1.75
2023-04-02T07:42:11.688Z,2.00
2023-04-02T07:46:17.647Z,1.80
2023-04-02T07:50:23.726Z,1.85
2023-04-02T07:54:30.427Z,2.13
2023-04-02T07:58:35.458Z,2.05
2023-04-02T08:02:40.420Z,2.10
2023-04-02T08:06:47.141Z,2.20
2023-04-02T08:10:53.672Z,2.20
2023-04-02T08:15:02.932Z,2.28
2023-04-02T08:19:08.920Z,2.10
2023-04-02T08:23:20.003Z,2.00
2023-04-02T08:27:24.724Z,2.10
2023-04-02T08:31:30.692Z,2.20
2023-04-02T08:35:35.261Z,2.30
2023-04-02T08:39:41.481Z,2.25
2023-04-02T08:44:11.799Z,2.53
2023-04-02T08:48:16.820Z,2.00
2023-04-02T08:52:24.280Z,2.78
2023-04-02T08:56:33.601Z,2.03
2023-04-02T09:00:42.505Z,1.83
2023-04-02T09:04:47.215Z,1.60
2023-04-02T09:08:54.757Z,1.70
2023-04-02T09:12:58.708Z,1.83
2023-04-02T09:17:04.980Z,2.15
2023-04-02T09:21:33.019Z,2.00
2023-04-02T09:25:48.460Z,2.10
2023-04-02T09:30:01.012Z,2.45
2023-04-02T09:34:29.712Z,2.20
2023-04-02T09:38:34.608Z,2.50
2023-04-02T09:42:38.286Z,2.28
2023-04-02T09:46:50.084Z,2.10
2023-04-02T09:51:20.433Z,2.25
2023-04-02T09:55:28.861Z,2.50
2023-04-02T09:59:32.258Z,2.05
2023-04-02T10:03:36.769Z,1.23
2023-04-02T10:07:45.080Z,1.25
2023-04-02T10:11:48.649Z,1.33
2023-04-02T10:16:01.186Z,1.70
2023-04-02T10:20:11.589Z,2.15
2023-04-02T10:24:21.347Z,2.17
2023-04-02T10:28:33.658Z,1.30
2023-04-02T10:32:44.916Z,1.52
2023-04-02T10:36:52.091Z,1.30
2023-04-02T10:41:04.431Z,1.48
2023-04-02T10:46:02.169Z,1.60
2023-04-02T10:50:23.004Z,1.70
2023-04-02T10:54:42.699Z,1.35
2023-04-02T10:58:58.767Z,1.98
2023-04-02T11:03:07.091Z,1.50
2023-04-02T11:07:19.064Z,1.53
2023-04-02T11:11:24.770Z,1.40
2023-04-02T11:15:35.886Z,1.50
2023-04-02T11:19:42.809Z,1.70
2023-04-02T11:24:02.272Z,1.60
2023-04-02T11:28:17.935Z,1.60
2023-04-02T11:32:35.279Z,1.83
2023-04-02T11:37:05.331Z,1.10
2023-04-02T11:41:10.830Z,3.57
2023-04-02T11:45:56.000Z,1.57
2023-04-02T11:50:07.518Z,1.80
2023-04-02T11:54:24.754Z,1.73
2023-04-02T11:58:52.237Z,1.23
2023-04-02T12:03:17.182Z,1.50
2023-04-02T12:07:56.184Z,1.73
2023-04-02T12:12:01.150Z,2.47
2023-04-02T12:16:06.374Z,1.67
2023-04-02T12:20:22.069Z,1.50
2023-04-02T12:24:31.522Z,1.50
2023-04-02T12:28:38.095Z,2.17
2023-04-02T12:32:41.611Z,2.10
2023-04-02T12:36:56.944Z,2.30
2023-04-02T12:41:04.243Z,2.53
2023-04-02T12:45:29.713Z,3.30
2023-04-02T12:49:37.841Z,2.22
2023-04-02T12:53:53.800Z,2.08
2023-04-02T12:57:59.606Z,2.10
2023-04-02T13:02:21.205Z,2.85
2023-04-02T13:06:30.767Z,2.17
2023-04-02T13:10:35.563Z,2.80
2023-04-02T13:14:40.623Z,2.92
2023-04-02T13:18:47.927Z,3.10
2023-04-02T13:22:52.872Z,2.50
2023-04-02T13:26:57.731Z,2.43
2023-04-02T13:31:04.392Z,2.42
2023-04-02T13:35:18.850Z,3.57
2023-04-02T13:39:21.931Z,4.07
2023-04-02T13:43:24.943Z,3.60
2023-04-02T13:47:29.402Z,4.07
2023-04-02T13:51:37.427Z,3.78
2023-04-02T13:55:43.843Z,3.90
2023-04-02T13:59:46.860Z,3.50
2023-04-02T14:03:58.298Z,3.60
2023-04-02T14:08:12.798Z,3.40
2023-04-02T14:12:22.445Z,3.93
2023-04-02T14:16:43.279Z,4.65
2023-04-02T14:20:59.239Z,5.00
2023-04-02T14:25:14.549Z,4.20
2023-04-02T14:29:29.210Z,4.70
2023-04-02T14:33:45.528Z,4.43
2023-04-02T14:38:01.989Z,5.03
2023-04-02T14:42:13.849Z,5.20
2023-04-02T14:46:19.366Z,6.57
2023-04-02T14:50:28.094Z,4.33
2023-04-02T14:54:35.789Z,5.60
2023-04-02T14:58:43.674Z,5.73
2023-04-02T15:02:49.844Z,5.80
2023-04-02T15:06:58.023Z,5.83
2023-04-02T15:11:12.014Z,7.67
2023-04-02T15:15:38.913Z,7.33
2023-04-02T15:19:43.299Z,6.13
2023-04-02T15:23:56.733Z,5.27
2023-04-02T15:28:16.905Z,6.20
2023-04-02T15:32:39.448Z,5.70
2023-04-02T15:37:05.101Z,4.80
2023-04-02T15:41:15.545Z,4.97
2023-04-02T15:45:37.345Z,4.70
2023-04-02T15:49:48.714Z,4.43
2023-04-02T15:53:58.885Z,4.90
2023-04-02T15:58:15.920Z,5.00
2023-04-02T16:02:55.419Z,5.10
2023-04-02T16:07:20.406Z,5.30
2023-04-02T16:11:23.426Z,4.53
2023-04-02T16:15:31.765Z,4.90
2023-04-02T16:19:41.176Z,5.23
2023-04-02T16:23:46.292Z,4.50
2023-04-02T16:27:59.251Z,3.93
2023-04-02T16:32:12.633Z,4.83
2023-04-02T16:36:31.867Z,4.03
2023-04-02T16:40:41.602Z,2.47
2023-04-02T16:45:04.610Z,3.90
2023-04-02T16:49:21.113Z,3.13
2023-04-02T16:53:33.837Z,3.50
2023-04-02T16:57:42.485Z,2.77
2023-04-02T17:01:55.834Z,3.70
2023-04-02T17:06:07.258Z,3.73
2023-04-02T17:10:27.476Z,4.23
2023-04-02T17:14:36.007Z,4.20
2023-04-02T17:18:43.487Z,3.33
2023-04-02T17:22:48.980Z,3.80
2023-04-02T17:26:58.255Z,3.80
2023-04-02T17:31:06.050Z,3.30
2023-04-02T17:35:20.697Z,4.53
2023-04-02T17:39:32.561Z,4.70
2023-04-02T17:43:47.597Z,4.20
2023-04-02T17:48:02.371Z,5.07
2023-04-02T17:52:16.038Z,5.03
2023-04-02T17:56:38.330Z,3.90
2023-04-02T18:00:56.714Z,4.17
2023-04-02T18:05:14.397Z,5.10
2023-04-02T18:09:33.725Z,4.83
2023-04-02T18:13:40.982Z,5.37
2023-04-02T18:17:54.922Z,4.63
2023-04-02T18:22:03.522Z,5.10
2023-04-02T18:26:18.427Z,4.67
2023-04-02T18:30:28.368Z,5.87
2023-04-02T18:34:59.665Z,5.40
2023-04-02T18:39:07.680Z,5.23
2023-04-02T18:43:27.370Z,4.13
2023-04-02T18:47:42.282Z,4.90
2023-04-02T18:51:48.622Z,5.77
2023-04-02T18:55:58.154Z,5.87
2023-04-02T19:00:06.913Z,5.43
2023-04-02T19:04:18.144Z,4.33
2023-04-02T19:08:31.225Z,3.80
2023-04-02T19:12:35.170Z,3.83
2023-04-02T19:16:59.178Z,4.67
2023-04-02T19:21:15.416Z,5.23
2023-04-02T19:25:46.089Z,4.70
2023-04-02T19:30:01.199Z,4.23
2023-04-02T19:34:11.114Z,4.10
2023-04-02T19:38:29.492Z,4.27
2023-04-02T19:42:43.682Z,4.57
2023-04-02T19:46:52.220Z,5.00
2023-04-02T19:50:55.355Z,4.03
2023-04-02T19:55:00.010Z,4.60
2023-04-02T19:59:17.253Z,3.93
2023-04-02T20:03:21.763Z,4.40
2023-04-02T20:07:25.060Z,4.23
2023-04-02T20:11:29.040Z,3.67
2023-04-02T20:15:33.740Z,4.30
2023-04-02T20:19:36.951Z,4.07
2023-04-02T20:23:40.732Z,5.40
2023-04-02T20:27:46.164Z,5.40
2023-04-02T20:31:55.160Z,4.43
2023-04-02T20:36:03.689Z,4.10
2023-04-02T20:40:08.065Z,3.90
2023-04-02T20:44:11.373Z,4.30
2023-04-02T20:48:16.797Z,4.33
2023-04-02T20:52:19.918Z,3.67
2023-04-02T20:56:28.334Z,3.70
2023-04-02T21:00:31.452Z,4.07
2023-04-02T21:04:38.951Z,4.77
2023-04-02T21:08:42.011Z,4.27
2023-04-02T21:12:48.054Z,4.20
2023-04-02T21:16:52.598Z,4.70
2023-04-02T21:21:02.083Z,4.43
2023-04-02T21:25:05.418Z,4.00
2023-04-02T21:29:11.693Z,3.67
2023-04-02T21:33:17.492Z,3.50
2023-04-02T21:37:22.661Z,3.90
2023-04-02T21:41:27.585Z,3.40
2023-04-02T21:45:30.912Z,2.33
2023-04-02T21:49:35.606Z,3.00
2023-04-02T21:53:40.710Z,3.47
2023-04-02T21:57:43.779Z,3.30
2023-04-02T22:01:52.537Z,2.50
2023-04-02T22:06:08.614Z,2.50
2023-04-02T22:10:13.147Z,3.17
2023-04-02T22:14:18.864Z,2.87
2023-04-02T22:18:21.894Z,2.60
2023-04-02T22:22:25.316Z,3.00
2023-04-02T22:26:30.315Z,2.90
2023-04-02T22:30:35.736Z,2.80
2023-04-02T22:34:47.787Z,3.20
2023-04-02T22:38:53.707Z,3.10
2023-04-02T22:43:00.681Z,3.30
2023-04-02T22:47:03.679Z,3.20
2023-04-02T22:51:09.934Z,2.83
2023-04-02T22:55:18.914Z,3.10
2023-04-02T22:59:24.675Z,2.90
2023-04-02T23:03:33.734Z,3.10
2023-04-02T23:07:39.009Z,3.20
2023-04-02T23:11:42.006Z,3.10
2023-04-02T23:15:46.698Z,3.37
2023-04-02T23:19:51.157Z,3.17
2023-04-02T23:23:54.326Z,3.23
2023-04-02T23:27:59.156Z,3.23
2023-04-02T23:32:03.674Z,3.30
2023-04-02T23:36:10.697Z,3.20
2023-04-02T23:40:16.783Z,3.27
2023-04-02T23:44:20.182Z,3.27
2023-04-02T23:48:27.122Z,3.53
2023-04-02T23:52:30.126Z,3.30
2023-04-02T23:56:33.168Z,2.67
